Terminal Aerodrome Forecast
Issued by NWS

Home | Current Version | Previous Version | Text Only | Print | Product List | Glossary On
Versions: 1 2 3 4 5 6 7 8 9 10 11 12 13 14 15 16 17 18 19
734
FTUS42 TJSJ 291245 CCA
TAFJPS
TAF COR
TJPS 291245Z 2913/3012 VRB05KT P6SM VCSH SCT025 SCT050
      TEMPO 2913/2915 5SM SHRA OVC022
     FM291500 15010KT P6SM VCSH SCT025 BKN060
     FM292330 10007KT P6SM FEW030 SCT060
      AMD NOT SKED TIL 300300=

USA.gov is the U.S. government's official web portal to all federal, state and local government web resources and services.